sensor_id;sensor_type;location;lat;lon;timestamp;P1;durP1;ratioP1;P2;durP2;ratioP2
76846;SDS011;65813;49.546;8.644;2022-12-13T05:19:06;16.95;;;7.00;;
76846;SDS011;65813;49.546;8.644;2022-12-13T05:23:06;17.43;;;8.00;;
76846;SDS011;65813;49.546;8.644;2022-12-13T05:27:07;20.53;;;8.43;;
76846;SDS011;65813;49.546;8.644;2022-12-13T05:31:09;16.23;;;7.28;;
76846;SDS011;65813;49.546;8.644;2022-12-13T05:35:14;14.85;;;7.68;;
76846;SDS011;65813;49.546;8.644;2022-12-13T05:39:15;12.35;;;7.15;;
76846;SDS011;65813;49.546;8.644;2022-12-13T05:43:15;17.77;;;7.73;;
76846;SDS011;65813;49.546;8.644;2022-12-13T05:47:15;16.37;;;7.00;;
76846;SDS011;65813;49.546;8.644;2022-12-13T05:51:16;15.43;;;6.13;;
76846;SDS011;65813;49.546;8.644;2022-12-13T05:55:16;16.20;;;6.67;;
76846;SDS011;65813;49.546;8.644;2022-12-13T05:59:16;14.35;;;6.05;;
76846;SDS011;65813;49.546;8.644;2022-12-13T06:03:17;16.27;;;7.10;;
76846;SDS011;65813;49.546;8.644;2022-12-13T06:07:17;16.63;;;7.10;;
76846;SDS011;65813;49.546;8.644;2022-12-13T06:11:19;14.55;;;7.03;;
76846;SDS011;65813;49.546;8.644;2022-12-13T06:15:19;13.83;;;6.63;;
76846;SDS011;65813;49.546;8.644;2022-12-13T06:19:20;18.43;;;7.93;;
76846;SDS011;65813;49.546;8.644;2022-12-13T06:23:21;12.70;;;6.55;;
76846;SDS011;65813;49.546;8.644;2022-12-13T06:27:21;17.57;;;7.17;;
76846;SDS011;65813;49.546;8.644;2022-12-13T06:31:22;15.95;;;6.50;;
76846;SDS011;65813;49.546;8.644;2022-12-13T06:35:22;17.20;;;6.87;;
76846;SDS011;65813;49.546;8.644;2022-12-13T06:39:22;13.97;;;6.77;;
76846;SDS011;65813;49.546;8.644;2022-12-13T06:43:23;16.87;;;6.53;;
76846;SDS011;65813;49.546;8.644;2022-12-13T06:47:24;14.40;;;6.47;;
76846;SDS011;65813;49.546;8.644;2022-12-13T06:51:24;11.90;;;5.93;;
76846;SDS011;65813;49.546;8.644;2022-12-13T06:55:25;19.47;;;6.97;;
76846;SDS011;65813;49.546;8.644;2022-12-13T06:59:25;14.13;;;5.73;;
76846;SDS011;65813;49.546;8.644;2022-12-13T07:03:25;15.37;;;7.10;;
76846;SDS011;65813;49.546;8.644;2022-12-13T07:07:25;14.80;;;6.10;;
76846;SDS011;65813;49.546;8.644;2022-12-13T07:11:27;16.70;;;7.13;;
76846;SDS011;65813;49.546;8.644;2022-12-13T07:15:28;12.07;;;5.80;;
76846;SDS011;65813;49.546;8.644;2022-12-13T07:19:32;15.70;;;7.07;;
76846;SDS011;65813;49.546;8.644;2022-12-13T07:23:36;48.10;;;20.37;;
76846;SDS011;65813;49.546;8.644;2022-12-13T07:27:37;20.90;;;8.60;;
76846;SDS011;65813;49.546;8.644;2022-12-13T07:31:38;16.27;;;7.33;;
76846;SDS011;65813;49.546;8.644;2022-12-13T07:35:38;15.52;;;6.85;;
76846;SDS011;65813;49.546;8.644;2022-12-13T07:39:39;18.88;;;8.30;;
76846;SDS011;65813;49.546;8.644;2022-12-13T07:43:39;15.43;;;7.43;;
76846;SDS011;65813;49.546;8.644;2022-12-13T07:47:39;16.20;;;8.10;;
76846;SDS011;65813;49.546;8.644;2022-12-13T07:51:40;19.80;;;8.10;;
76846;SDS011;65813;49.546;8.644;2022-12-13T07:55:40;15.70;;;6.67;;
76846;SDS011;65813;49.546;8.644;2022-12-13T07:59:40;14.13;;;7.93;;
76846;SDS011;65813;49.546;8.644;2022-12-13T08:03:41;15.97;;;7.30;;
76846;SDS011;65813;49.546;8.644;2022-12-13T08:07:41;18.10;;;7.90;;
76846;SDS011;65813;49.546;8.644;2022-12-13T08:11:42;17.92;;;7.70;;
76846;SDS011;65813;49.546;8.644;2022-12-13T08:15:42;16.10;;;7.53;;
76846;SDS011;65813;49.546;8.644;2022-12-13T08:19:42;16.07;;;6.67;;
76846;SDS011;65813;49.546;8.644;2022-12-13T08:23:42;19.93;;;8.00;;
76846;SDS011;65813;49.546;8.644;2022-12-13T08:27:43;21.57;;;8.60;;
76846;SDS011;65813;49.546;8.644;2022-12-13T08:31:43;19.30;;;9.17;;
76846;SDS011;65813;49.546;8.644;2022-12-13T08:35:43;16.03;;;7.77;;
76846;SDS011;65813;49.546;8.644;2022-12-13T08:39:44;17.60;;;8.05;;
76846;SDS011;65813;49.546;8.644;2022-12-13T08:43:44;18.47;;;7.40;;
76846;SDS011;65813;49.546;8.644;2022-12-13T08:47:45;18.15;;;8.65;;
76846;SDS011;65813;49.546;8.644;2022-12-13T08:51:45;19.30;;;7.23;;
76846;SDS011;65813;49.546;8.644;2022-12-13T08:55:46;17.27;;;7.80;;
76846;SDS011;65813;49.546;8.644;2022-12-13T08:59:46;19.83;;;8.00;;
76846;SDS011;65813;49.546;8.644;2022-12-13T09:03:46;17.47;;;7.53;;
76846;SDS011;65813;49.546;8.644;2022-12-13T09:07:46;22.17;;;8.67;;
76846;SDS011;65813;49.546;8.644;2022-12-13T09:11:47;17.53;;;8.30;;
76846;SDS011;65813;49.546;8.644;2022-12-13T09:15:47;20.37;;;8.27;;
76846;SDS011;65813;49.546;8.644;2022-12-13T09:19:48;24.80;;;9.43;;
76846;SDS011;65813;49.546;8.644;2022-12-13T09:23:48;17.70;;;7.87;;
76846;SDS011;65813;49.546;8.644;2022-12-13T09:27:48;17.80;;;7.90;;
76846;SDS011;65813;49.546;8.644;2022-12-13T09:31:49;16.43;;;8.77;;
76846;SDS011;65813;49.546;8.644;2022-12-13T09:35:50;22.77;;;9.60;;
76846;SDS011;65813;49.546;8.644;2022-12-13T09:39:51;19.25;;;9.02;;
76846;SDS011;65813;49.546;8.644;2022-12-13T09:43:52;20.77;;;8.43;;
76846;SDS011;65813;49.546;8.644;2022-12-13T09:48:00;23.48;;;10.25;;
76846;SDS011;65813;49.546;8.644;2022-12-13T09:52:02;19.67;;;8.32;;
76846;SDS011;65813;49.546;8.644;2022-12-13T09:56:05;24.48;;;9.85;;
76846;SDS011;65813;49.546;8.644;2022-12-13T10:00:12;29.05;;;10.80;;
76846;SDS011;65813;49.546;8.644;2022-12-13T10:04:15;21.15;;;9.25;;
76846;SDS011;65813;49.546;8.644;2022-12-13T10:08:19;22.15;;;10.38;;
76846;SDS011;65813;49.546;8.644;2022-12-13T10:12:23;20.30;;;9.10;;
76846;SDS011;65813;49.546;8.644;2022-12-13T10:16:25;17.88;;;9.02;;
76846;SDS011;65813;49.546;8.644;2022-12-13T10:20:27;17.33;;;9.10;;
76846;SDS011;65813;49.546;8.644;2022-12-13T10:24:30;18.02;;;9.10;;
76846;SDS011;65813;49.546;8.644;2022-12-13T10:29:09;16.25;;;7.72;;
76846;SDS011;65813;49.546;8.644;2022-12-13T10:33:34;18.05;;;8.50;;
76846;SDS011;65813;49.546;8.644;2022-12-13T10:37:50;15.13;;;7.20;;
76846;SDS011;65813;49.546;8.644;2022-12-13T10:41:54;18.40;;;7.38;;
76846;SDS011;65813;49.546;8.644;2022-12-13T10:46:02;16.50;;;7.95;;
76846;SDS011;65813;49.546;8.644;2022-12-13T10:50:03;18.97;;;7.13;;
76846;SDS011;65813;49.546;8.644;2022-12-13T10:54:04;21.35;;;8.23;;
76846;SDS011;65813;49.546;8.644;2022-12-13T10:58:15;14.43;;;7.20;;
76846;SDS011;65813;49.546;8.644;2022-12-13T11:06:45;15.70;;;7.65;;
76846;SDS011;65813;49.546;8.644;2022-12-13T11:10:55;16.17;;;7.63;;
76846;SDS011;65813;49.546;8.644;2022-12-13T11:15:00;14.68;;;8.23;;
76846;SDS011;65813;49.546;8.644;2022-12-13T11:19:06;14.32;;;7.88;;
76846;SDS011;65813;49.546;8.644;2022-12-13T11:32:11;13.35;;;6.25;;
76846;SDS011;65813;49.546;8.644;2022-12-13T11:36:30;13.55;;;5.78;;
76846;SDS011;65813;49.546;8.644;2022-12-13T11:40:45;11.95;;;6.25;;
76846;SDS011;65813;49.546;8.644;2022-12-13T11:44:57;10.93;;;6.10;;
76846;SDS011;65813;49.546;8.644;2022-12-13T11:49:14;11.27;;;6.40;;
76846;SDS011;65813;49.546;8.644;2022-12-13T11:57:35;11.52;;;5.82;;
76846;SDS011;65813;49.546;8.644;2022-12-13T12:01:50;10.43;;;5.50;;
76846;SDS011;65813;49.546;8.644;2022-12-13T12:06:00;10.85;;;6.20;;
76846;SDS011;65813;49.546;8.644;2022-12-13T12:10:14;10.43;;;4.95;;
76846;SDS011;65813;49.546;8.644;2022-12-13T12:14:30;7.97;;;3.50;;
76846;SDS011;65813;49.546;8.644;2022-12-13T12:18:37;5.05;;;2.70;;
76846;SDS011;65813;49.546;8.644;2022-12-13T12:22:45;7.32;;;3.00;;
76846;SDS011;65813;49.546;8.644;2022-12-13T12:31:34;11.20;;;6.03;;
76846;SDS011;65813;49.546;8.644;2022-12-13T12:35:57;13.77;;;6.88;;
76846;SDS011;65813;49.546;8.644;2022-12-13T12:49:03;15.20;;;8.23;;
76846;SDS011;65813;49.546;8.644;2022-12-13T12:53:32;14.25;;;6.82;;
76846;SDS011;65813;49.546;8.644;2022-12-13T13:06:30;14.35;;;7.47;;
76846;SDS011;65813;49.546;8.644;2022-12-13T13:10:34;17.80;;;8.45;;
76846;SDS011;65813;49.546;8.644;2022-12-13T13:14:38;15.00;;;8.02;;
76846;SDS011;65813;49.546;8.644;2022-12-13T13:18:51;14.57;;;6.90;;
76846;SDS011;65813;49.546;8.644;2022-12-13T13:22:56;19.98;;;8.73;;
76846;SDS011;65813;49.546;8.644;2022-12-13T13:26:58;13.55;;;7.25;;
76846;SDS011;65813;49.546;8.644;2022-12-13T13:35:48;14.50;;;7.28;;
76846;SDS011;65813;49.546;8.644;2022-12-13T13:44:31;15.77;;;7.20;;
76846;SDS011;65813;49.546;8.644;2022-12-13T14:23:20;16.70;;;7.25;;
76846;SDS011;65813;49.546;8.644;2022-12-13T14:27:43;17.58;;;7.97;;
76846;SDS011;65813;49.546;8.644;2022-12-13T14:31:47;18.70;;;7.93;;
76846;SDS011;65813;49.546;8.644;2022-12-13T14:35:49;16.58;;;8.13;;
76846;SDS011;65813;49.546;8.644;2022-12-13T14:44:12;15.00;;;7.03;;
76846;SDS011;65813;49.546;8.644;2022-12-13T14:48:14;16.83;;;8.20;;
76846;SDS011;65813;49.546;8.644;2022-12-13T14:52:22;19.27;;;7.63;;
76846;SDS011;65813;49.546;8.644;2022-12-13T14:56:25;16.38;;;8.60;;
76846;SDS011;65813;49.546;8.644;2022-12-13T15:00:33;17.13;;;8.18;;
76846;SDS011;65813;49.546;8.644;2022-12-13T15:04:37;17.05;;;8.50;;
76846;SDS011;65813;49.546;8.644;2022-12-13T15:08:38;21.23;;;9.67;;
76846;SDS011;65813;49.546;8.644;2022-12-13T15:12:41;21.33;;;9.30;;
76846;SDS011;65813;49.546;8.644;2022-12-13T15:16:50;20.58;;;9.60;;
76846;SDS011;65813;49.546;8.644;2022-12-13T15:20:53;12.25;;;6.07;;
76846;SDS011;65813;49.546;8.644;2022-12-13T15:24:54;11.05;;;5.22;;
76846;SDS011;65813;49.546;8.644;2022-12-13T15:28:59;10.68;;;4.97;;
76846;SDS011;65813;49.546;8.644;2022-12-13T15:33:04;9.32;;;4.25;;
76846;SDS011;65813;49.546;8.644;2022-12-13T15:41:14;9.80;;;4.82;;
76846;SDS011;65813;49.546;8.644;2022-12-13T15:45:18;8.48;;;3.90;;
76846;SDS011;65813;49.546;8.644;2022-12-13T15:54:24;8.75;;;4.25;;
76846;SDS011;65813;49.546;8.644;2022-12-13T15:58:24;10.80;;;4.53;;
76846;SDS011;65813;49.546;8.644;2022-12-13T16:02:32;9.10;;;4.63;;
76846;SDS011;65813;49.546;8.644;2022-12-13T16:06:34;9.30;;;4.57;;
76846;SDS011;65813;49.546;8.644;2022-12-13T16:10:35;7.95;;;4.22;;
76846;SDS011;65813;49.546;8.644;2022-12-13T16:14:45;9.48;;;4.15;;
76846;SDS011;65813;49.546;8.644;2022-12-13T16:18:55;8.35;;;3.90;;
76846;SDS011;65813;49.546;8.644;2022-12-13T16:22:57;11.32;;;4.93;;
76846;SDS011;65813;49.546;8.644;2022-12-13T16:26:58;8.40;;;4.33;;
76846;SDS011;65813;49.546;8.644;2022-12-13T16:31:17;12.40;;;5.20;;
76846;SDS011;65813;49.546;8.644;2022-12-13T16:35:20;10.50;;;5.25;;
76846;SDS011;65813;49.546;8.644;2022-12-13T16:39:20;11.60;;;4.70;;
76846;SDS011;65813;49.546;8.644;2022-12-13T16:43:22;11.87;;;4.40;;
76846;SDS011;65813;49.546;8.644;2022-12-13T16:47:25;10.38;;;5.35;;
76846;SDS011;65813;49.546;8.644;2022-12-13T16:51:28;9.90;;;5.13;;
76846;SDS011;65813;49.546;8.644;2022-12-13T16:55:28;11.87;;;5.80;;
76846;SDS011;65813;49.546;8.644;2022-12-13T16:59:29;11.47;;;5.30;;
76846;SDS011;65813;49.546;8.644;2022-12-13T17:03:29;10.10;;;5.13;;
76846;SDS011;65813;49.546;8.644;2022-12-13T17:07:30;12.35;;;5.45;;
76846;SDS011;65813;49.546;8.644;2022-12-13T17:11:31;10.27;;;5.40;;
76846;SDS011;65813;49.546;8.644;2022-12-13T17:15:32;9.68;;;5.00;;
76846;SDS011;65813;49.546;8.644;2022-12-13T17:19:32;12.87;;;6.13;;
76846;SDS011;65813;49.546;8.644;2022-12-13T17:23:32;11.57;;;6.03;;
76846;SDS011;65813;49.546;8.644;2022-12-13T17:27:33;10.93;;;5.50;;
76846;SDS011;65813;49.546;8.644;2022-12-13T17:31:33;12.13;;;6.40;;
76846;SDS011;65813;49.546;8.644;2022-12-13T17:35:34;13.77;;;6.63;;
76846;SDS011;65813;49.546;8.644;2022-12-13T17:39:37;14.63;;;5.35;;
76846;SDS011;65813;49.546;8.644;2022-12-13T17:43:37;10.87;;;5.57;;
76846;SDS011;65813;49.546;8.644;2022-12-13T17:47:38;11.88;;;5.15;;
76846;SDS011;65813;49.546;8.644;2022-12-13T17:51:38;10.40;;;5.83;;
76846;SDS011;65813;49.546;8.644;2022-12-13T17:55:39;14.50;;;5.77;;
76846;SDS011;65813;49.546;8.644;2022-12-13T17:59:39;12.77;;;5.20;;
76846;SDS011;65813;49.546;8.644;2022-12-13T18:03:40;14.20;;;6.00;;
76846;SDS011;65813;49.546;8.644;2022-12-13T18:07:41;13.00;;;5.20;;
76846;SDS011;65813;49.546;8.644;2022-12-13T18:11:41;14.30;;;5.77;;
76846;SDS011;65813;49.546;8.644;2022-12-13T18:15:42;12.55;;;5.50;;
76846;SDS011;65813;49.546;8.644;2022-12-13T18:19:42;12.13;;;5.23;;
76846;SDS011;65813;49.546;8.644;2022-12-13T18:23:42;11.27;;;5.57;;
76846;SDS011;65813;49.546;8.644;2022-12-13T18:27:43;13.27;;;5.80;;
76846;SDS011;65813;49.546;8.644;2022-12-13T18:31:44;9.00;;;5.00;;
76846;SDS011;65813;49.546;8.644;2022-12-13T18:35:44;11.80;;;5.43;;
76846;SDS011;65813;49.546;8.644;2022-12-13T18:39:44;9.73;;;4.80;;
76846;SDS011;65813;49.546;8.644;2022-12-13T18:43:45;13.43;;;5.77;;
76846;SDS011;65813;49.546;8.644;2022-12-13T18:47:46;9.93;;;4.53;;
76846;SDS011;65813;49.546;8.644;2022-12-13T18:51:46;11.27;;;5.07;;
76846;SDS011;65813;49.546;8.644;2022-12-13T18:55:47;12.47;;;5.43;;
76846;SDS011;65813;49.546;8.644;2022-12-13T18:59:47;11.47;;;5.63;;
76846;SDS011;65813;49.546;8.644;2022-12-13T19:03:47;13.03;;;5.43;;
76846;SDS011;65813;49.546;8.644;2022-12-13T19:07:48;8.48;;;4.00;;
76846;SDS011;65813;49.546;8.644;2022-12-13T19:11:48;7.90;;;4.20;;
76846;SDS011;65813;49.546;8.644;2022-12-13T19:15:52;10.70;;;4.93;;
76846;SDS011;65813;49.546;8.644;2022-12-13T19:19:54;9.20;;;3.80;;
76846;SDS011;65813;49.546;8.644;2022-12-13T19:23:56;9.63;;;4.50;;
76846;SDS011;65813;49.546;8.644;2022-12-13T19:27:56;11.35;;;4.32;;
76846;SDS011;65813;49.546;8.644;2022-12-13T19:31:56;7.77;;;3.73;;
76846;SDS011;65813;49.546;8.644;2022-12-13T19:35:57;11.47;;;5.30;;
76846;SDS011;65813;49.546;8.644;2022-12-13T19:39:57;10.25;;;3.45;;
76846;SDS011;65813;49.546;8.644;2022-12-13T19:44:00;9.38;;;4.50;;
76846;SDS011;65813;49.546;8.644;2022-12-13T19:48:01;8.75;;;4.30;;
76846;SDS011;65813;49.546;8.644;2022-12-13T19:52:01;8.13;;;3.83;;
76846;SDS011;65813;49.546;8.644;2022-12-13T19:56:11;7.13;;;3.80;;
76846;SDS011;65813;49.546;8.644;2022-12-13T20:00:14;6.45;;;3.58;;
76846;SDS011;65813;49.546;8.644;2022-12-13T20:04:15;6.70;;;2.97;;
76846;SDS011;65813;49.546;8.644;2022-12-13T20:08:15;7.00;;;3.47;;
76846;SDS011;65813;49.546;8.644;2022-12-13T20:12:17;9.32;;;4.15;;
76846;SDS011;65813;49.546;8.644;2022-12-13T20:16:21;7.20;;;3.50;;
76846;SDS011;65813;49.546;8.644;2022-12-13T20:20:23;6.90;;;3.50;;
76846;SDS011;65813;49.546;8.644;2022-12-13T20:24:23;7.43;;;3.63;;
76846;SDS011;65813;49.546;8.644;2022-12-13T20:28:23;6.87;;;3.00;;
76846;SDS011;65813;49.546;8.644;2022-12-13T20:32:24;7.75;;;3.90;;
76846;SDS011;65813;49.546;8.644;2022-12-13T20:36:25;8.52;;;4.03;;
76846;SDS011;65813;49.546;8.644;2022-12-13T20:40:27;8.23;;;3.67;;
76846;SDS011;65813;49.546;8.644;2022-12-13T20:44:27;6.43;;;3.63;;
76846;SDS011;65813;49.546;8.644;2022-12-13T20:48:28;8.10;;;3.60;;
76846;SDS011;65813;49.546;8.644;2022-12-13T20:52:29;6.25;;;3.38;;
76846;SDS011;65813;49.546;8.644;2022-12-13T20:56:30;7.93;;;4.07;;
76846;SDS011;65813;49.546;8.644;2022-12-13T21:00:34;7.05;;;3.08;;
76846;SDS011;65813;49.546;8.644;2022-12-13T21:04:34;8.37;;;3.43;;
76846;SDS011;65813;49.546;8.644;2022-12-13T21:08:34;7.30;;;3.20;;
76846;SDS011;65813;49.546;8.644;2022-12-13T21:12:50;9.10;;;3.30;;
76846;SDS011;65813;49.546;8.644;2022-12-13T21:16:51;7.00;;;3.73;;
76846;SDS011;65813;49.546;8.644;2022-12-13T21:20:59;8.02;;;3.75;;
76846;SDS011;65813;49.546;8.644;2022-12-13T21:24:59;7.33;;;3.53;;
76846;SDS011;65813;49.546;8.644;2022-12-13T21:29:00;11.73;;;4.38;;
76846;SDS011;65813;49.546;8.644;2022-12-13T21:33:03;8.85;;;4.40;;
76846;SDS011;65813;49.546;8.644;2022-12-13T21:37:03;8.40;;;4.30;;
76846;SDS011;65813;49.546;8.644;2022-12-13T21:41:04;8.27;;;3.78;;
76846;SDS011;65813;49.546;8.644;2022-12-13T21:45:06;7.85;;;4.03;;
76846;SDS011;65813;49.546;8.644;2022-12-13T21:49:06;6.93;;;2.95;;
76846;SDS011;65813;49.546;8.644;2022-12-13T21:53:07;6.82;;;3.83;;
76846;SDS011;65813;49.546;8.644;2022-12-13T21:57:07;6.93;;;3.37;;
76846;SDS011;65813;49.546;8.644;2022-12-13T22:01:28;8.55;;;3.92;;
76846;SDS011;65813;49.546;8.644;2022-12-13T22:05:49;7.47;;;3.00;;
76846;SDS011;65813;49.546;8.644;2022-12-13T22:09:49;7.07;;;3.23;;
76846;SDS011;65813;49.546;8.644;2022-12-13T22:13:52;5.43;;;2.63;;
